createdAt,value
2023-04-27T00:01:42.077Z,88725.06
2023-04-27T00:04:09.030Z,88729.63
2023-04-27T00:06:35.899Z,88724.75
2023-04-27T00:09:02.791Z,88733.41
2023-04-27T00:11:29.631Z,88737.84
2023-04-27T00:13:56.979Z,88725.16
2023-04-27T00:16:23.931Z,88720.03
2023-04-27T00:18:50.779Z,88710.63
2023-04-27T00:21:17.692Z,88719.25
2023-04-27T00:23:45.035Z,88719.94
2023-04-27T00:26:11.860Z,88731.56
2023-04-27T00:28:38.704Z,88732.44
2023-04-27T00:31:05.848Z,88720.75
2023-04-27T00:33:32.726Z,88708.56
2023-04-27T00:36:00.705Z,88716.78
2023-04-27T00:38:28.632Z,88712.47
2023-04-27T00:41:06.248Z,88719.47
2023-04-27T00:43:41.347Z,88715.50
2023-04-27T00:46:09.360Z,88710.91
2023-04-27T00:48:36.524Z,88714.28
2023-04-27T00:51:03.727Z,88712.03
2023-04-27T00:53:32.002Z,88708.03
2023-04-27T00:55:58.779Z,88715.38
2023-04-27T00:58:25.786Z,88713.44
2023-04-27T01:00:52.807Z,88709.31
2023-04-27T01:03:20.038Z,88714.25
2023-04-27T01:05:47.061Z,88702.88
2023-04-27T01:24:07.013Z,88697.88
2023-04-27T01:26:34.087Z,88697.66
2023-04-27T01:29:00.852Z,88695.47
2023-04-27T01:31:27.642Z,88693.72
2023-04-27T01:40:51.703Z,88692.94
2023-04-27T01:43:18.551Z,88697.69
2023-04-27T01:45:45.304Z,88695.44
2023-04-27T01:55:08.282Z,88695.50
2023-04-27T01:57:35.004Z,88689.47
2023-04-27T02:00:01.836Z,88693.63
2023-04-27T02:02:28.767Z,88692.94
2023-04-27T02:04:55.677Z,88699.75
2023-04-27T02:07:22.578Z,88691.75
2023-04-27T02:09:49.562Z,88700.50
2023-04-27T02:12:16.293Z,88690.00
2023-04-27T02:14:43.084Z,88691.59
2023-04-27T02:17:09.972Z,88690.00
2023-04-27T02:19:36.812Z,88698.13
2023-04-27T02:22:03.906Z,88699.09
2023-04-27T02:34:45.576Z,88702.78
2023-04-27T02:37:12.312Z,88701.28
2023-04-27T02:39:39.085Z,88701.50
2023-04-27T02:42:06.065Z,88705.81
2023-04-27T02:44:32.801Z,88707.78
2023-04-27T02:46:59.720Z,88708.34
2023-04-27T02:49:26.565Z,88718.72
2023-04-27T02:51:53.357Z,88723.28
2023-04-27T02:54:20.112Z,88715.09
2023-04-27T02:56:47.051Z,88719.03
2023-04-27T02:59:14.063Z,88712.16
2023-04-27T03:01:41.124Z,88716.56
2023-04-27T03:04:08.275Z,88711.16
2023-04-27T03:06:35.171Z,88714.50
2023-04-27T03:09:02.126Z,88709.69
2023-04-27T03:11:29.008Z,88710.19
2023-04-27T03:13:55.769Z,88718.06
2023-04-27T03:16:22.623Z,88720.72
2023-04-27T03:18:49.545Z,88721.94
2023-04-27T03:21:16.393Z,88725.25
2023-04-27T03:23:43.249Z,88721.91
2023-04-27T03:26:14.566Z,88725.53
2023-04-27T03:28:41.553Z,88722.59
2023-04-27T03:31:11.356Z,88716.50
2023-04-27T03:33:39.221Z,88718.25
2023-04-27T03:36:07.770Z,88721.13
2023-04-27T03:38:35.279Z,88726.72
2023-04-27T03:41:02.173Z,88721.06
2023-04-27T03:43:29.167Z,88718.84
2023-04-27T03:45:56.141Z,88718.13
2023-04-27T03:48:23.492Z,88721.75
2023-04-27T03:50:50.532Z,88725.31
2023-04-27T03:53:17.402Z,88729.16
2023-04-27T03:55:45.560Z,88720.41
2023-04-27T03:58:12.851Z,88715.72
2023-04-27T04:00:40.530Z,88718.41
2023-04-27T04:03:08.166Z,88714.72
2023-04-27T04:05:35.394Z,88724.38
2023-04-27T04:08:02.285Z,88730.72
2023-04-27T04:10:29.207Z,88718.63
2023-04-27T04:12:56.100Z,88723.56
2023-04-27T04:15:22.968Z,88723.41
2023-04-27T04:17:49.833Z,88720.06
2023-04-27T04:20:16.794Z,88730.50
2023-04-27T04:22:43.647Z,88730.56
2023-04-27T04:25:10.573Z,88722.81
2023-04-27T04:27:37.431Z,88726.44
2023-04-27T04:30:05.874Z,88720.41
2023-04-27T04:32:33.413Z,88722.34
2023-04-27T04:35:00.248Z,88717.06
2023-04-27T04:37:27.422Z,88703.84
2023-04-27T04:39:54.366Z,88712.53
2023-04-27T04:42:21.271Z,88711.81
2023-04-27T04:44:48.135Z,88716.63
2023-04-27T04:47:14.987Z,88716.13
2023-04-27T04:49:41.719Z,88712.97
2023-04-27T04:52:08.611Z,88725.78
2023-04-27T04:54:35.568Z,88716.53
2023-04-27T04:57:02.369Z,88717.78
2023-04-27T04:59:31.520Z,88711.75
2023-04-27T05:02:02.068Z,88715.34
2023-04-27T05:04:29.155Z,88705.13
2023-04-27T05:06:56.019Z,88709.91
2023-04-27T05:09:23.110Z,88710.53
2023-04-27T05:11:49.977Z,88717.69
2023-04-27T05:14:16.721Z,88719.81
2023-04-27T05:16:43.892Z,88712.50
2023-04-27T05:19:10.731Z,88710.09
2023-04-27T05:21:37.629Z,88707.34
2023-04-27T05:24:04.564Z,88708.72
2023-04-27T05:26:31.326Z,88713.53
2023-04-27T05:28:58.050Z,88712.84
2023-04-27T05:31:24.964Z,88707.25
2023-04-27T05:33:51.901Z,88709.19
2023-04-27T05:36:18.807Z,88714.78
2023-04-27T05:38:45.762Z,88703.63
2023-04-27T05:41:12.565Z,88714.28
2023-04-27T05:43:39.363Z,88709.47
2023-04-27T05:46:06.739Z,88716.94
2023-04-27T05:48:34.187Z,88712.81
2023-04-27T05:51:03.092Z,88712.06
2023-04-27T05:53:30.817Z,88716.22
2023-04-27T05:55:57.633Z,88709.91
2023-04-27T05:58:24.523Z,88714.47
2023-04-27T06:00:51.443Z,88712.56
2023-04-27T06:03:18.431Z,88710.13
2023-04-27T06:05:45.417Z,88710.06
2023-04-27T06:08:13.071Z,88713.97
2023-04-27T06:10:39.921Z,88710.56
2023-04-27T06:13:06.737Z,88709.78
2023-04-27T06:15:33.690Z,88706.88
2023-04-27T06:18:00.644Z,88717.25
2023-04-27T06:20:27.599Z,88700.25
2023-04-27T06:22:54.504Z,88717.88
2023-04-27T06:25:21.399Z,88710.00
2023-04-27T06:27:48.258Z,88707.47
2023-04-27T06:30:15.208Z,88707.13
2023-04-27T06:32:42.029Z,88708.47
2023-04-27T06:35:09.318Z,88711.31
2023-04-27T06:37:36.119Z,88704.47
2023-04-27T06:40:03.030Z,88703.00
2023-04-27T06:42:29.809Z,88696.84
2023-04-27T06:44:56.713Z,88695.84
2023-04-27T06:47:23.510Z,88700.25
2023-04-27T06:49:50.522Z,88691.84
2023-04-27T06:52:17.503Z,88683.53
2023-04-27T06:54:44.297Z,88696.16
2023-04-27T06:57:11.066Z,88695.97
2023-04-27T06:59:37.935Z,88693.09
2023-04-27T07:02:04.732Z,88695.66
2023-04-27T07:04:31.622Z,88684.97
2023-04-27T07:06:58.572Z,88688.03
2023-04-27T07:09:27.850Z,88684.34
2023-04-27T07:11:55.395Z,88682.00
2023-04-27T07:14:22.687Z,88678.81
2023-04-27T07:16:49.490Z,88677.66
2023-04-27T07:19:16.352Z,88683.28
2023-04-27T07:21:43.511Z,88672.97
2023-04-27T07:24:10.224Z,88669.66
2023-04-27T07:26:37.269Z,88672.81
2023-04-27T07:29:14.545Z,88674.63
2023-04-27T07:31:52.231Z,88675.09
2023-04-27T07:34:19.392Z,88671.72
2023-04-27T07:36:46.233Z,88671.09
2023-04-27T07:39:13.346Z,88672.31
2023-04-27T07:41:40.441Z,88667.06
2023-04-27T07:44:07.233Z,88671.69
2023-04-27T07:46:34.036Z,88674.59
2023-04-27T07:49:00.859Z,88674.06
2023-04-27T07:51:27.627Z,88664.72
2023-04-27T07:53:54.667Z,88673.47
2023-04-27T07:56:21.614Z,88658.75
2023-04-27T07:58:48.475Z,88663.03
2023-04-27T08:01:15.417Z,88662.13
2023-04-27T08:03:42.428Z,88667.16
2023-04-27T08:06:09.755Z,88666.25
2023-04-27T08:08:36.985Z,88659.19
2023-04-27T08:11:04.363Z,88668.72
2023-04-27T08:13:31.261Z,88662.22
2023-04-27T08:15:58.130Z,88667.00
2023-04-27T08:18:28.096Z,88662.81
2023-04-27T08:20:55.359Z,88652.44
2023-04-27T08:23:22.182Z,88653.94
2023-04-27T08:25:49.036Z,88646.31
2023-04-27T08:28:15.907Z,88651.44
2023-04-27T08:30:43.065Z,88648.47
2023-04-27T08:33:10.002Z,88653.88
2023-04-27T08:35:36.944Z,88648.69
2023-04-27T08:38:03.804Z,88643.34
2023-04-27T08:40:30.643Z,88651.94
2023-04-27T08:42:59.760Z,88643.56
2023-04-27T08:45:27.656Z,88640.44
2023-04-27T08:47:54.790Z,88647.09
2023-04-27T08:50:22.687Z,88652.13
2023-04-27T08:52:49.594Z,88647.66
2023-04-27T08:55:16.842Z,88634.81
2023-04-27T08:57:54.880Z,88642.59
2023-04-27T09:00:21.947Z,88629.53
2023-04-27T09:02:49.499Z,88641.22
2023-04-27T09:05:20.814Z,88634.47
2023-04-27T09:07:58.667Z,88633.38
2023-04-27T09:10:26.767Z,88634.38
2023-04-27T09:13:00.681Z,88632.34
2023-04-27T09:15:28.559Z,88635.75
2023-04-27T09:17:58.580Z,88624.88
2023-04-27T09:20:25.686Z,88616.47
2023-04-27T09:22:53.560Z,88611.47
2023-04-27T09:25:31.161Z,88622.50
2023-04-27T09:27:59.222Z,88616.47
2023-04-27T09:30:30.084Z,88618.03
2023-04-27T09:32:59.324Z,88604.72
2023-04-27T09:35:28.879Z,88609.38
2023-04-27T09:37:56.857Z,88603.53
2023-04-27T09:40:25.722Z,88593.53
2023-04-27T09:42:54.932Z,88596.28
2023-04-27T09:45:22.978Z,88601.69
2023-04-27T09:47:50.144Z,88604.56
2023-04-27T09:50:17.212Z,88605.19
2023-04-27T09:52:46.281Z,88595.53
2023-04-27T09:55:19.086Z,88596.56
2023-04-27T09:57:59.302Z,88595.63
2023-04-27T10:00:48.737Z,88597.09
2023-04-27T10:03:28.456Z,88596.03
2023-04-27T10:06:26.309Z,88583.44
2023-04-27T10:08:53.568Z,88601.13
2023-04-27T10:11:20.497Z,88608.16
2023-04-27T10:13:55.104Z,88603.81
2023-04-27T10:16:22.684Z,88612.34
2023-04-27T10:18:55.388Z,88622.41
2023-04-27T10:21:23.028Z,88623.75
2023-04-27T10:23:52.092Z,88628.66
2023-04-27T10:26:26.547Z,88628.28
2023-04-27T10:29:07.512Z,88634.63
2023-04-27T10:31:35.165Z,88649.94
2023-04-27T10:34:09.326Z,88652.69
2023-04-27T10:36:40.053Z,88653.44
2023-04-27T10:39:17.258Z,88655.34
2023-04-27T10:41:51.637Z,88650.28
2023-04-27T10:44:20.651Z,88648.81
2023-04-27T10:46:52.312Z,88649.53
2023-04-27T10:49:19.458Z,88665.31
2023-04-27T10:51:46.370Z,88678.91
2023-04-27T10:54:17.596Z,88667.75
2023-04-27T10:56:44.886Z,88674.31
2023-04-27T10:59:12.011Z,88670.94
2023-04-27T11:01:40.761Z,88677.25
2023-04-27T11:04:07.696Z,88676.28
2023-04-27T11:06:42.568Z,88682.31
2023-04-27T11:09:10.221Z,88688.16
2023-04-27T11:11:37.231Z,88687.91
2023-04-27T11:14:04.342Z,88680.38
2023-04-27T11:16:34.438Z,88686.91
2023-04-27T11:19:05.442Z,88691.69
2023-04-27T11:21:32.394Z,88697.94
2023-04-27T11:24:06.986Z,88702.09
2023-04-27T11:26:33.892Z,88701.66
2023-04-27T11:29:04.589Z,88700.22
2023-04-27T11:31:43.941Z,88695.06
2023-04-27T11:34:16.727Z,88701.63
2023-04-27T11:36:43.753Z,88706.22
2023-04-27T11:39:17.268Z,88705.28
2023-04-27T11:41:44.325Z,88698.47
2023-04-27T11:44:11.071Z,88705.94
2023-04-27T11:46:38.716Z,88704.47
2023-04-27T11:49:06.862Z,88708.13
2023-04-27T11:51:33.957Z,88705.88
2023-04-27T11:54:07.922Z,88708.25
2023-04-27T11:56:41.203Z,88711.13
2023-04-27T11:59:20.049Z,88704.13
2023-04-27T12:01:46.811Z,88708.75
2023-04-27T12:04:14.063Z,88705.81
2023-04-27T12:06:41.513Z,88698.75
2023-04-27T12:09:08.350Z,88698.09
2023-04-27T12:11:35.199Z,88689.84
2023-04-27T12:14:03.155Z,88699.19
2023-04-27T12:16:30.093Z,88697.97
2023-04-27T12:18:56.886Z,88696.47
2023-04-27T12:21:23.883Z,88688.34
2023-04-27T12:23:50.750Z,88694.53
2023-04-27T12:26:17.611Z,88687.56
2023-04-27T12:28:44.495Z,88690.13
2023-04-27T12:31:15.440Z,88690.59
2023-04-27T12:33:42.450Z,88698.00
2023-04-27T12:36:09.485Z,88698.50
2023-04-27T12:38:36.377Z,88700.75
2023-04-27T12:41:03.222Z,88696.94
2023-04-27T12:43:30.085Z,88706.13
2023-04-27T12:45:57.002Z,88696.56
2023-04-27T12:48:24.011Z,88699.81
2023-04-27T12:50:51.275Z,88706.97
2023-04-27T12:53:18.307Z,88693.41
2023-04-27T12:55:45.220Z,88703.81
2023-04-27T12:58:12.235Z,88706.00
2023-04-27T13:00:39.251Z,88694.34
2023-04-27T13:03:06.619Z,88698.72
2023-04-27T13:05:33.782Z,88696.84
2023-04-27T13:08:00.621Z,88710.09
2023-04-27T13:10:28.450Z,88700.44
2023-04-27T13:12:55.456Z,88695.38
2023-04-27T13:15:22.361Z,88701.94
2023-04-27T13:17:49.260Z,88701.22
2023-04-27T13:20:16.354Z,88707.00
2023-04-27T13:22:43.305Z,88702.41
2023-04-27T13:25:10.242Z,88708.19
2023-04-27T13:27:37.286Z,88707.91
2023-04-27T13:30:07.726Z,88714.19
2023-04-27T13:32:34.661Z,88715.91
2023-04-27T13:35:01.615Z,88722.44
2023-04-27T13:37:28.365Z,88717.16
2023-04-27T13:39:55.200Z,88722.00
2023-04-27T13:42:22.139Z,88728.28
2023-04-27T13:44:51.737Z,88724.88
2023-04-27T13:47:18.582Z,88724.88
2023-04-27T13:49:45.542Z,88720.75
2023-04-27T13:52:12.411Z,88724.81
2023-04-27T13:54:39.218Z,88722.16
2023-04-27T13:57:06.052Z,88728.88
2023-04-27T13:59:32.908Z,88726.94
2023-04-27T14:01:59.723Z,88736.16
2023-04-27T14:04:26.658Z,88733.75
2023-04-27T14:06:53.657Z,88738.31
2023-04-27T14:09:20.618Z,88724.00
2023-04-27T14:11:56.296Z,88730.28
2023-04-27T14:14:24.326Z,88733.00
2023-04-27T14:16:51.541Z,88731.59
2023-04-27T14:19:18.839Z,88724.59
2023-04-27T14:21:46.563Z,88725.78
2023-04-27T14:24:13.718Z,88723.88
2023-04-27T14:26:40.577Z,88715.19
2023-04-27T14:29:07.503Z,88706.94
2023-04-27T14:31:34.598Z,88707.91
2023-04-27T14:34:01.461Z,88704.78
2023-04-27T14:36:28.358Z,88708.63
2023-04-27T14:38:55.279Z,88702.56
2023-04-27T14:41:25.135Z,88711.03
2023-04-27T14:43:51.889Z,88708.84
2023-04-27T14:46:21.445Z,88712.22
2023-04-27T14:48:51.922Z,88712.47
2023-04-27T14:51:18.965Z,88713.47
2023-04-27T14:53:45.856Z,88709.81
2023-04-27T14:56:12.870Z,88716.38
2023-04-27T14:58:39.994Z,88705.47
2023-04-27T15:01:07.261Z,88700.41
2023-04-27T15:03:34.695Z,88685.63
2023-04-27T15:06:02.584Z,88668.47
2023-04-27T15:08:31.321Z,88667.97
2023-04-27T15:11:00.023Z,88670.16
2023-04-27T15:13:27.622Z,88669.66
2023-04-27T15:15:58.892Z,88671.59
2023-04-27T15:18:26.005Z,88655.69
2023-04-27T15:20:57.499Z,88659.56
2023-04-27T15:23:25.544Z,88666.88
2023-04-27T15:25:56.220Z,88660.59
2023-04-27T15:28:23.602Z,88668.31
2023-04-27T15:30:50.945Z,88668.56
2023-04-27T15:33:18.820Z,88693.91
2023-04-27T15:35:45.952Z,88691.75
2023-04-27T15:38:13.673Z,88698.03
2023-04-27T15:40:40.706Z,88701.41
2023-04-27T15:43:07.686Z,88708.44
2023-04-27T15:45:34.607Z,88713.47
2023-04-27T15:48:01.506Z,88722.66
2023-04-27T15:50:28.561Z,88716.84
2023-04-27T15:52:55.468Z,88720.22
2023-04-27T15:55:22.592Z,88728.22
2023-04-27T15:57:49.887Z,88730.19
2023-04-27T16:00:17.142Z,88734.78
2023-04-27T16:02:44.240Z,88738.34
2023-04-27T16:05:11.329Z,88732.47
2023-04-27T16:07:39.154Z,88732.25
2023-04-27T16:10:06.977Z,88731.13
2023-04-27T16:12:34.180Z,88731.91
2023-04-27T16:15:01.225Z,88730.19
2023-04-27T16:17:31.182Z,88744.22
2023-04-27T16:19:58.494Z,88736.47
2023-04-27T16:22:25.611Z,88730.63
2023-04-27T16:24:52.533Z,88737.94
2023-04-27T16:27:20.048Z,88742.28
2023-04-27T16:29:50.086Z,88742.28
2023-04-27T16:32:17.106Z,88742.53
2023-04-27T16:34:44.234Z,88751.94
2023-04-27T16:37:11.007Z,88756.31
2023-04-27T16:39:37.942Z,88760.66
2023-04-27T16:42:05.330Z,88765.22
2023-04-27T16:44:32.368Z,88771.06
2023-04-27T16:46:59.379Z,88771.06
2023-04-27T16:49:26.347Z,88767.19
2023-04-27T16:51:53.272Z,88765.97
2023-04-27T16:54:20.133Z,88761.63
2023-04-27T16:56:47.168Z,88771.78
2023-04-27T16:59:14.265Z,88766.22
2023-04-27T17:01:41.337Z,88764.03
2023-04-27T17:04:08.623Z,88769.34
2023-04-27T17:06:35.605Z,88772.25
2023-04-27T17:09:02.641Z,88772.28
2023-04-27T17:11:29.713Z,88782.91
2023-04-27T17:13:56.736Z,88777.06
2023-04-27T17:16:26.447Z,88780.47
2023-04-27T17:18:54.937Z,88786.03
2023-04-27T17:21:21.872Z,88796.19
2023-04-27T17:23:48.789Z,88800.31
2023-04-27T17:26:15.671Z,88802.69
2023-04-27T17:28:42.554Z,88809.69
2023-04-27T17:31:09.558Z,88812.38
2023-04-27T17:33:36.585Z,88808.03
2023-04-27T17:36:03.760Z,88811.91
2023-04-27T17:38:30.602Z,88816.50
2023-04-27T17:40:57.581Z,88824.97
2023-04-27T17:43:24.513Z,88821.84
2023-04-27T17:45:51.361Z,88819.41
2023-04-27T17:48:18.432Z,88824.75
2023-04-27T17:50:45.435Z,88825.94
2023-04-27T17:53:12.536Z,88829.34
2023-04-27T17:55:39.466Z,88825.22
2023-04-27T17:58:06.334Z,88830.28
2023-04-27T18:03:20.280Z,88838.53
2023-04-27T18:05:47.285Z,88833.69
2023-04-27T18:08:14.164Z,88840.44
2023-04-27T18:10:44.261Z,88836.59
2023-04-27T18:13:11.523Z,88825.22
2023-04-27T18:15:38.470Z,88834.66
2023-04-27T18:18:05.461Z,88843.59
2023-04-27T18:20:34.726Z,88849.41
2023-04-27T18:23:01.667Z,88851.84
2023-04-27T18:25:33.215Z,88855.94
2023-04-27T18:28:00.262Z,88853.03
2023-04-27T18:30:27.153Z,88853.50
2023-04-27T18:33:02.473Z,88848.63
2023-04-27T18:35:29.403Z,88853.53
2023-04-27T18:38:01.649Z,88845.94
2023-04-27T18:40:31.660Z,88861.78
2023-04-27T18:42:58.707Z,88864.53
2023-04-27T18:45:29.122Z,88866.19
2023-04-27T18:47:58.926Z,88857.22
2023-04-27T18:50:26.233Z,88864.00
2023-04-27T18:52:53.689Z,88864.09
2023-04-27T18:55:20.563Z,88868.72
2023-04-27T18:57:47.407Z,88860.63
2023-04-27T19:00:15.728Z,88863.25
2023-04-27T19:02:44.524Z,88863.22
2023-04-27T19:05:13.404Z,88863.22
2023-04-27T19:07:41.003Z,88870.53
2023-04-27T19:10:10.618Z,88874.97
2023-04-27T19:12:57.041Z,88874.97
2023-04-27T19:15:24.428Z,88878.66
2023-04-27T19:17:55.498Z,88879.28
2023-04-27T19:20:32.429Z,88877.56
2023-04-27T19:23:01.866Z,88890.34
2023-04-27T19:25:28.796Z,88883.22
2023-04-27T19:27:55.692Z,88888.88
2023-04-27T19:30:22.685Z,88885.41
2023-04-27T19:32:49.658Z,88882.66
2023-04-27T19:35:16.659Z,88880.34
2023-04-27T19:37:43.555Z,88884.63
2023-04-27T19:40:10.919Z,88879.44
2023-04-27T19:42:50.645Z,88879.03
2023-04-27T19:45:17.608Z,88877.44
2023-04-27T19:47:44.748Z,88886.44
2023-04-27T19:50:12.201Z,88882.59
2023-04-27T19:52:39.086Z,88878.06
2023-04-27T19:55:09.226Z,88883.41
2023-04-27T19:57:36.410Z,88881.72
2023-04-27T20:00:11.213Z,88884.13
2023-04-27T20:02:39.405Z,88883.91
2023-04-27T20:05:06.911Z,88885.13
2023-04-27T20:07:35.114Z,88879.59
2023-04-27T20:10:04.708Z,88885.66
2023-04-27T20:12:51.592Z,88888.56
2023-04-27T20:15:18.382Z,88889.06
2023-04-27T20:17:45.403Z,88890.50
2023-04-27T20:20:12.245Z,88891.22
2023-04-27T20:22:39.611Z,88893.63
2023-04-27T20:25:06.976Z,88895.31
2023-04-27T20:27:34.848Z,88894.13
2023-04-27T20:30:02.389Z,88889.28
2023-04-27T20:32:29.323Z,88891.44
2023-04-27T20:34:57.592Z,88892.41
2023-04-27T20:37:24.611Z,88882.75
2023-04-27T20:39:51.600Z,88887.81
2023-04-27T20:42:18.409Z,88884.88
2023-04-27T20:44:49.474Z,88887.00
2023-04-27T20:47:21.488Z,88888.00
2023-04-27T20:49:48.511Z,88886.56
2023-04-27T20:52:15.774Z,88888.06
2023-04-27T20:54:42.610Z,88890.44
2023-04-27T20:57:09.431Z,88891.66
2023-04-27T20:59:38.497Z,88894.25
2023-04-27T21:02:06.055Z,88891.34
2023-04-27T21:04:33.288Z,88894.22
2023-04-27T21:07:10.140Z,88887.66
2023-04-27T21:09:37.202Z,88886.66
2023-04-27T21:12:04.886Z,88892.09
2023-04-27T21:14:32.000Z,88893.09
2023-04-27T21:16:59.123Z,88897.72
2023-04-27T21:19:27.312Z,88892.41
2023-04-27T21:21:54.559Z,88894.63
2023-04-27T21:24:22.091Z,88892.44
2023-04-27T21:26:49.391Z,88886.41
2023-04-27T21:29:16.299Z,88885.16
2023-04-27T21:31:43.152Z,88878.16
2023-04-27T21:34:10.101Z,88884.72
2023-04-27T21:36:37.101Z,88887.84
2023-04-27T21:39:03.934Z,88886.69
2023-04-27T21:41:31.154Z,88885.97
2023-04-27T21:43:58.105Z,88885.19
2023-04-27T21:46:25.474Z,88884.22
2023-04-27T21:48:52.313Z,88880.66
2023-04-27T21:51:19.463Z,88879.19
2023-04-27T21:53:46.644Z,88880.16
2023-04-27T21:56:13.586Z,88880.66
2023-04-27T21:58:40.470Z,88884.22
2023-04-27T22:01:07.369Z,88890.28
2023-04-27T22:03:34.476Z,88890.94
2023-04-27T22:06:01.862Z,88894.28
2023-04-27T22:08:28.835Z,88892.66
2023-04-27T22:10:56.179Z,88888.09
2023-04-27T22:13:23.399Z,88888.59
2023-04-27T22:15:50.321Z,88892.66
2023-04-27T22:18:17.428Z,88890.75
2023-04-27T22:20:44.775Z,88884.22
2023-04-27T22:23:12.782Z,88891.16
2023-04-27T22:25:40.603Z,88889.22
2023-04-27T22:28:10.019Z,88889.94
2023-04-27T22:30:37.219Z,88889.47
2023-04-27T22:33:04.204Z,88889.72
2023-04-27T22:35:31.520Z,88897.94
2023-04-27T22:37:59.949Z,88891.63
2023-04-27T22:40:27.091Z,88898.19
2023-04-27T22:42:55.108Z,88888.56
2023-04-27T22:45:24.632Z,88898.97
2023-04-27T22:47:51.717Z,88895.03
2023-04-27T22:50:18.674Z,88891.13
2023-04-27T22:52:56.527Z,88897.03
2023-04-27T22:55:23.748Z,88895.09
2023-04-27T22:57:50.669Z,88890.00
2023-04-27T23:00:17.654Z,88887.53
2023-04-27T23:02:44.933Z,88887.28
2023-04-27T23:05:12.015Z,88883.72
2023-04-27T23:07:39.685Z,88890.38
2023-04-27T23:10:07.917Z,88888.56
2023-04-27T23:12:34.832Z,88890.38
2023-04-27T23:15:01.981Z,88891.19
2023-04-27T23:17:28.795Z,88902.13
2023-04-27T23:19:56.590Z,88892.38
2023-04-27T23:22:23.728Z,88881.22
2023-04-27T23:24:50.787Z,88876.66
2023-04-27T23:27:18.211Z,88905.06
2023-04-27T23:29:45.561Z,88894.94
2023-04-27T23:32:12.453Z,88896.06
2023-04-27T23:34:39.231Z,88894.47
2023-04-27T23:37:06.084Z,88900.56
2023-04-27T23:39:32.918Z,88906.59
2023-04-27T23:41:59.743Z,88902.84
2023-04-27T23:44:26.592Z,88908.22
2023-04-27T23:46:53.600Z,88903.47
2023-04-27T23:49:20.419Z,88898.78
2023-04-27T23:51:47.178Z,88903.16
2023-04-27T23:54:14.418Z,88905.47
2023-04-27T23:56:41.452Z,88901.84
2023-04-27T23:59:08.320Z,88903.84
